createdAt,value
2023-02-19T00:01:30.020Z,11.58
2023-02-19T00:04:02.519Z,11.60
2023-02-19T00:06:31.079Z,11.59
2023-02-19T00:08:57.761Z,11.60
2023-02-19T00:11:27.774Z,11.59
2023-02-19T00:13:57.383Z,11.59
2023-02-19T00:16:31.779Z,11.58
2023-02-19T00:19:00.169Z,11.60
2023-02-19T00:21:27.404Z,11.60
2023-02-19T00:23:56.476Z,11.59
2023-02-19T00:26:23.265Z,11.58
2023-02-19T00:28:51.409Z,11.57
2023-02-19T00:31:24.206Z,11.57
2023-02-19T00:33:53.964Z,11.58
2023-02-19T00:36:20.795Z,11.58
2023-02-19T00:38:48.189Z,11.57
2023-02-19T00:41:19.081Z,11.57
2023-02-19T00:43:57.282Z,11.53
2023-02-19T00:46:35.902Z,11.55
2023-02-19T00:49:02.855Z,11.58
2023-02-19T00:51:32.039Z,11.57
2023-02-19T00:53:58.814Z,11.58
2023-02-19T00:56:25.433Z,11.58
2023-02-19T00:58:51.970Z,11.59
2023-02-19T01:01:19.324Z,11.59
2023-02-19T01:03:46.887Z,11.62
2023-02-19T01:06:15.741Z,11.62
2023-02-19T01:08:42.406Z,11.64
2023-02-19T01:11:11.672Z,11.65
2023-02-19T01:13:38.661Z,11.67
2023-02-19T01:16:10.570Z,11.68
2023-02-19T01:18:37.192Z,11.71
2023-02-19T01:21:13.440Z,11.68
2023-02-19T01:23:40.355Z,11.72
2023-02-19T01:26:09.238Z,11.71
2023-02-19T01:28:36.590Z,11.72
2023-02-19T01:31:05.532Z,11.72
2023-02-19T01:33:33.215Z,11.74
2023-02-19T01:36:00.221Z,11.74
2023-02-19T01:38:27.620Z,11.74
2023-02-19T01:40:58.432Z,11.74
2023-02-19T01:43:25.045Z,11.75
2023-02-19T01:45:51.769Z,11.76
2023-02-19T01:48:23.072Z,11.75
2023-02-19T01:51:02.915Z,11.74
2023-02-19T01:53:33.512Z,11.76
2023-02-19T01:56:02.270Z,11.76
2023-02-19T01:58:33.954Z,11.75
2023-02-19T02:01:03.049Z,11.77
2023-02-19T02:03:31.354Z,11.77
2023-02-19T02:06:03.784Z,11.75
2023-02-19T02:08:50.266Z,11.76
2023-02-19T02:11:17.730Z,11.78
2023-02-19T02:13:44.765Z,11.78
2023-02-19T02:16:30.289Z,11.72
2023-02-19T02:19:17.994Z,11.74
2023-02-19T02:22:02.913Z,11.73
2023-02-19T02:25:00.591Z,11.72
2023-02-19T02:28:04.232Z,11.73
2023-02-19T02:30:46.317Z,11.78
2023-02-19T02:33:21.777Z,11.78
2023-02-19T02:35:53.128Z,11.76
2023-02-19T02:38:23.706Z,11.75
2023-02-19T02:40:51.231Z,11.76
2023-02-19T02:43:17.868Z,11.76
2023-02-19T02:45:44.434Z,11.76
2023-02-19T02:48:19.747Z,11.74
2023-02-19T02:50:54.524Z,11.76
2023-02-19T02:53:46.221Z,11.76
2023-02-19T02:56:15.532Z,11.76
2023-02-19T02:58:43.388Z,11.76
2023-02-19T03:01:43.300Z,11.73
2023-02-19T03:04:15.618Z,11.74
2023-02-19T03:06:44.588Z,11.76
2023-02-19T03:09:30.198Z,11.74
2023-02-19T03:12:19.114Z,11.73
2023-02-19T03:15:17.082Z,11.72
2023-02-19T03:18:07.317Z,11.72
2023-02-19T03:20:36.624Z,11.72
2023-02-19T03:23:05.156Z,11.72
2023-02-19T03:25:54.471Z,11.70
2023-02-19T03:28:45.211Z,11.68
2023-02-19T03:31:17.045Z,11.68
2023-02-19T03:33:47.355Z,11.67
2023-02-19T03:36:18.914Z,11.66
2023-02-19T03:38:56.823Z,11.63
2023-02-19T03:41:23.292Z,11.65
2023-02-19T03:43:49.683Z,11.63
2023-02-19T03:46:25.683Z,11.60
2023-02-19T03:49:10.491Z,11.58
2023-02-19T03:51:44.136Z,11.59
2023-02-19T03:54:35.254Z,11.55
2023-02-19T03:57:11.826Z,11.59
2023-02-19T03:59:52.449Z,11.55
2023-02-19T04:03:06.045Z,11.52
2023-02-19T04:05:37.303Z,11.55
2023-02-19T04:08:14.082Z,11.52
2023-02-19T04:10:41.756Z,11.55
2023-02-19T04:13:26.434Z,11.49
2023-02-19T04:15:56.938Z,11.51
2023-02-19T04:18:29.127Z,11.49
2023-02-19T04:20:57.568Z,11.50
2023-02-19T04:23:28.932Z,11.48
2023-02-19T04:25:59.554Z,11.47
2023-02-19T04:28:26.130Z,11.47
2023-02-19T04:30:52.814Z,11.46
2023-02-19T04:33:19.352Z,11.45
2023-02-19T04:35:45.776Z,11.44
2023-02-19T04:38:13.824Z,11.43
2023-02-19T04:40:40.375Z,11.41
2023-02-19T04:43:06.945Z,11.39
2023-02-19T04:45:33.581Z,11.37
2023-02-19T04:48:00.215Z,11.36
2023-02-19T04:50:26.689Z,11.33
2023-02-19T04:52:53.318Z,11.33
2023-02-19T04:55:19.810Z,11.33
2023-02-19T04:57:46.247Z,11.31
2023-02-19T05:00:13.490Z,11.30
2023-02-19T05:02:39.969Z,11.29
2023-02-19T05:05:06.591Z,11.29
2023-02-19T05:07:33.732Z,11.28
2023-02-19T05:10:00.158Z,11.28
2023-02-19T05:12:26.833Z,11.28
2023-02-19T05:14:53.504Z,11.28
2023-02-19T05:17:20.065Z,11.28
2023-02-19T05:19:46.529Z,11.27
2023-02-19T05:22:12.963Z,11.28
2023-02-19T05:24:39.509Z,11.27
2023-02-19T05:27:06.004Z,11.25
2023-02-19T05:29:32.540Z,11.26
2023-02-19T05:32:05.422Z,11.22
2023-02-19T05:34:32.083Z,11.23
2023-02-19T05:36:58.632Z,11.23
2023-02-19T05:39:25.141Z,11.22
2023-02-19T05:41:51.653Z,11.23
2023-02-19T05:44:18.111Z,11.21
2023-02-19T05:46:44.660Z,11.21
2023-02-19T05:49:11.054Z,11.20
2023-02-19T05:51:37.595Z,11.20
2023-02-19T05:54:04.178Z,11.20
2023-02-19T05:56:38.972Z,11.16
2023-02-19T05:59:17.945Z,11.14
2023-02-19T06:01:44.982Z,11.17
2023-02-19T06:04:12.386Z,11.17
2023-02-19T06:06:39.184Z,11.16
2023-02-19T06:09:06.853Z,11.12
2023-02-19T06:11:34.070Z,11.05
2023-02-19T06:14:00.875Z,10.96
2023-02-19T06:16:27.635Z,10.88
2023-02-19T06:18:54.184Z,10.78
2023-02-19T06:21:20.739Z,10.69
2023-02-19T06:23:47.409Z,10.60
2023-02-19T06:26:20.910Z,10.53
2023-02-19T06:28:49.288Z,10.48
2023-02-19T06:31:17.360Z,10.42
2023-02-19T06:33:44.133Z,10.38
2023-02-19T06:36:16.355Z,10.28
2023-02-19T06:38:42.974Z,10.22
2023-02-19T06:41:11.165Z,10.11
2023-02-19T06:43:38.208Z,10.03
2023-02-19T06:46:06.719Z,9.94
2023-02-19T06:48:33.978Z,9.87
2023-02-19T06:51:00.504Z,9.78
2023-02-19T06:53:27.584Z,9.71
2023-02-19T06:55:57.773Z,9.61
2023-02-19T06:58:24.610Z,9.55
2023-02-19T07:00:51.189Z,9.49
2023-02-19T07:03:17.715Z,9.44
2023-02-19T07:05:44.224Z,9.40
2023-02-19T07:08:10.766Z,9.37
2023-02-19T07:10:37.331Z,9.35
2023-02-19T07:13:04.072Z,9.32
2023-02-19T07:15:30.607Z,9.30
2023-02-19T07:17:57.018Z,9.27
2023-02-19T07:20:23.539Z,9.26
2023-02-19T07:22:50.418Z,9.23
2023-02-19T07:25:17.215Z,9.19
2023-02-19T07:27:43.643Z,9.17
2023-02-19T07:30:10.930Z,9.14
2023-02-19T07:32:41.281Z,9.11
2023-02-19T07:35:08.008Z,9.09
2023-02-19T07:37:34.604Z,9.07
2023-02-19T07:40:01.308Z,9.05
2023-02-19T07:42:27.937Z,9.03
2023-02-19T07:44:54.515Z,9.00
2023-02-19T07:47:20.950Z,8.99
2023-02-19T07:49:47.374Z,8.99
2023-02-19T07:52:13.878Z,8.98
2023-02-19T07:54:40.348Z,8.99
2023-02-19T07:57:06.884Z,8.99
2023-02-19T07:59:34.927Z,9.01
2023-02-19T08:02:19.690Z,9.02
2023-02-19T08:04:48.037Z,9.01
2023-02-19T08:07:14.466Z,9.02
2023-02-19T08:09:40.926Z,9.03
2023-02-19T08:12:29.373Z,9.01
2023-02-19T08:14:55.884Z,9.03
2023-02-19T08:17:22.420Z,9.03
2023-02-19T08:19:48.967Z,9.03
2023-02-19T08:22:16.295Z,9.02
2023-02-19T08:24:45.048Z,9.01
2023-02-19T08:27:11.588Z,8.97
2023-02-19T08:29:38.005Z,8.95
2023-02-19T08:32:04.699Z,8.91
2023-02-19T08:34:31.212Z,8.87
2023-02-19T08:36:57.762Z,8.83
2023-02-19T08:39:24.319Z,8.79
2023-02-19T08:41:50.930Z,8.78
2023-02-19T08:44:18.069Z,8.77
2023-02-19T08:46:44.440Z,8.76
2023-02-19T08:49:10.929Z,8.77
2023-02-19T08:51:37.408Z,8.79
2023-02-19T08:54:04.325Z,8.80
2023-02-19T08:56:30.856Z,8.80
2023-02-19T08:58:57.400Z,8.81
2023-02-19T09:01:23.982Z,8.83
2023-02-19T09:03:50.708Z,8.86
2023-02-19T09:06:19.006Z,8.89
2023-02-19T09:08:45.501Z,8.93
2023-02-19T09:11:12.778Z,8.94
2023-02-19T09:13:39.483Z,8.98
2023-02-19T09:16:06.366Z,9.00
2023-02-19T09:18:33.019Z,9.03
2023-02-19T09:21:05.077Z,9.06
2023-02-19T09:23:36.331Z,9.09
2023-02-19T09:26:06.758Z,9.13
2023-02-19T09:28:33.388Z,9.19
2023-02-19T09:31:12.013Z,9.22
2023-02-19T09:33:42.199Z,9.29
2023-02-19T09:36:09.025Z,9.32
2023-02-19T09:38:35.477Z,9.35
2023-02-19T09:41:14.460Z,9.34
2023-02-19T09:43:42.894Z,9.38
2023-02-19T09:46:32.555Z,9.38
2023-02-19T09:49:08.045Z,9.39
2023-02-19T09:51:37.956Z,9.44
2023-02-19T09:54:07.839Z,9.46
2023-02-19T09:56:34.668Z,9.51
2023-02-19T09:59:01.696Z,9.56
2023-02-19T10:01:32.818Z,9.60
2023-02-19T10:03:59.625Z,9.68
2023-02-19T10:06:29.849Z,9.74
2023-02-19T10:09:11.467Z,9.81
2023-02-19T10:11:38.434Z,9.93
2023-02-19T10:14:09.510Z,9.99
2023-02-19T10:16:40.838Z,10.04
2023-02-19T10:19:12.397Z,10.08
2023-02-19T10:21:39.954Z,10.12
2023-02-19T10:24:08.242Z,10.13
2023-02-19T10:26:36.737Z,10.16
2023-02-19T10:29:05.150Z,10.16
2023-02-19T10:31:33.407Z,10.21
2023-02-19T10:34:01.974Z,10.26
2023-02-19T10:36:42.783Z,10.34
2023-02-19T10:39:43.931Z,10.42
2023-02-19T10:42:22.035Z,10.56
2023-02-19T10:44:58.843Z,10.68
2023-02-19T10:47:27.210Z,10.82
2023-02-19T10:49:59.450Z,10.95
2023-02-19T10:52:30.191Z,11.07
2023-02-19T10:55:18.390Z,11.18
2023-02-19T10:57:46.884Z,11.31
2023-02-19T11:03:23.950Z,11.48
2023-02-19T11:05:56.318Z,11.59
2023-02-19T11:08:24.311Z,11.64
2023-02-19T11:10:51.169Z,11.68
2023-02-19T11:13:32.210Z,11.70
2023-02-19T11:15:59.894Z,11.79
2023-02-19T11:18:30.276Z,11.88
2023-02-19T11:20:58.288Z,12.01
2023-02-19T11:23:34.393Z,12.22
2023-02-19T11:26:05.082Z,12.59
2023-02-19T11:28:35.066Z,13.08
2023-02-19T11:31:20.133Z,13.63
2023-02-19T11:34:14.660Z,14.12
2023-02-19T11:36:42.791Z,14.44
2023-02-19T11:39:15.083Z,14.58
2023-02-19T11:42:01.396Z,14.70
2023-02-19T11:44:46.594Z,14.80
2023-02-19T11:47:34.821Z,15.01
2023-02-19T11:50:21.087Z,15.34
2023-02-19T11:53:00.103Z,15.80
2023-02-19T11:55:32.652Z,16.34
2023-02-19T11:58:13.658Z,16.94
2023-02-19T12:01:05.221Z,17.57
2023-02-19T12:03:55.830Z,18.04
2023-02-19T12:06:48.479Z,18.34
2023-02-19T12:09:43.219Z,18.51
2023-02-19T12:12:36.155Z,18.52
2023-02-19T12:15:09.428Z,18.45
2023-02-19T12:17:51.195Z,18.29
2023-02-19T12:20:27.082Z,18.01
2023-02-19T12:23:08.645Z,17.65
2023-02-19T12:25:57.774Z,17.34
2023-02-19T12:28:42.936Z,17.06
2023-02-19T12:31:40.552Z,16.64
2023-02-19T12:34:19.327Z,16.42
2023-02-19T12:36:56.222Z,16.11
2023-02-19T12:39:49.991Z,15.94
2023-02-19T12:43:04.036Z,15.83
2023-02-19T12:45:36.414Z,15.77
2023-02-19T12:48:20.518Z,15.69
2023-02-19T12:50:51.356Z,15.65
2023-02-19T12:53:20.973Z,15.57
2023-02-19T12:55:48.335Z,15.46
2023-02-19T12:58:27.392Z,15.39
2023-02-19T13:00:59.139Z,15.39
2023-02-19T13:03:30.687Z,15.39
2023-02-19T13:06:21.313Z,15.35
2023-02-19T13:09:06.388Z,15.36
2023-02-19T13:11:56.440Z,15.31
2023-02-19T13:14:34.757Z,15.24
2023-02-19T13:17:09.415Z,15.17
2023-02-19T13:19:37.896Z,15.14
2023-02-19T13:22:40.869Z,15.08
2023-02-19T13:25:10.149Z,15.13
2023-02-19T13:27:48.969Z,15.06
2023-02-19T13:31:07.750Z,15.03
2023-02-19T13:33:44.807Z,15.02
2023-02-19T13:36:21.539Z,14.93
2023-02-19T13:38:50.049Z,14.87
2023-02-19T13:41:31.181Z,14.69
2023-02-19T13:44:03.677Z,14.60
2023-02-19T13:46:37.818Z,14.49
2023-02-19T13:49:22.873Z,14.34
2023-02-19T13:51:55.004Z,14.26
2023-02-19T13:54:29.018Z,14.16
2023-02-19T13:57:23.414Z,14.04
2023-02-19T13:59:51.804Z,14.01
2023-02-19T14:02:21.328Z,13.89
2023-02-19T14:04:55.538Z,13.79
2023-02-19T14:07:35.256Z,13.66
2023-02-19T14:10:03.050Z,13.62
2023-02-19T14:12:35.164Z,13.51
2023-02-19T14:15:39.042Z,13.41
2023-02-19T14:18:42.537Z,13.36
2023-02-19T14:21:39.833Z,13.29
2023-02-19T14:24:13.426Z,13.27
2023-02-19T14:26:41.270Z,13.23
2023-02-19T14:29:10.619Z,13.15
2023-02-19T14:31:38.434Z,13.08
2023-02-19T14:34:13.634Z,13.01
2023-02-19T14:37:01.074Z,12.92
2023-02-19T14:39:31.173Z,12.88
2023-02-19T14:42:01.021Z,12.83
2023-02-19T14:44:33.951Z,12.79
2023-02-19T14:47:09.573Z,12.74
2023-02-19T14:49:47.297Z,12.70
2023-02-19T14:52:22.030Z,12.68
2023-02-19T14:54:50.898Z,12.67
2023-02-19T14:57:23.504Z,12.62
2023-02-19T15:00:22.512Z,12.56
2023-02-19T15:02:53.529Z,12.57
2023-02-19T15:05:26.109Z,12.54
2023-02-19T15:07:55.306Z,12.54
2023-02-19T15:10:22.565Z,12.54
2023-02-19T15:12:55.536Z,12.49
2023-02-19T15:15:23.190Z,12.50
2023-02-19T15:17:50.984Z,12.54
2023-02-19T15:20:24.554Z,12.48
2023-02-19T15:22:52.882Z,12.46
2023-02-19T15:25:22.259Z,12.41
2023-02-19T15:27:49.082Z,12.37
2023-02-19T15:30:27.470Z,12.32
2023-02-19T15:32:59.527Z,12.27
2023-02-19T15:35:28.755Z,12.24
2023-02-19T15:37:55.682Z,12.19
2023-02-19T15:40:29.381Z,12.10
2023-02-19T15:42:56.378Z,12.07
2023-02-19T15:45:37.657Z,11.99
2023-02-19T15:48:10.609Z,11.97
2023-02-19T15:50:44.045Z,11.92
2023-02-19T15:53:18.812Z,11.89
2023-02-19T15:56:07.561Z,11.79
2023-02-19T15:58:45.682Z,11.74
2023-02-19T16:01:15.810Z,11.71
2023-02-19T16:03:42.886Z,11.68
2023-02-19T16:06:14.981Z,11.60
2023-02-19T16:09:01.963Z,11.56
2023-02-19T16:11:37.018Z,11.53
2023-02-19T16:14:37.115Z,11.46
2023-02-19T16:17:22.033Z,11.47
2023-02-19T16:19:56.831Z,11.44
2023-02-19T16:22:26.648Z,11.40
2023-02-19T16:25:00.887Z,11.35
2023-02-19T16:27:34.132Z,11.33
2023-02-19T16:30:10.344Z,11.29
2023-02-19T16:32:37.047Z,11.30
2023-02-19T16:35:04.929Z,11.27
2023-02-19T16:37:56.030Z,11.19
2023-02-19T16:40:45.521Z,11.20
2023-02-19T16:43:15.087Z,11.17
2023-02-19T16:45:42.267Z,11.15
2023-02-19T16:48:10.255Z,11.10
2023-02-19T16:50:37.116Z,11.04
2023-02-19T16:53:04.239Z,11.01
2023-02-19T16:55:32.571Z,10.97
2023-02-19T16:57:59.075Z,10.96
2023-02-19T17:02:58.525Z,10.88
2023-02-19T17:05:28.422Z,10.86
2023-02-19T17:07:55.291Z,10.87
2023-02-19T17:10:25.421Z,10.82
2023-02-19T17:12:53.623Z,10.81
2023-02-19T17:15:20.464Z,10.81
2023-02-19T17:17:47.945Z,10.80
2023-02-19T17:20:17.266Z,10.77
2023-02-19T17:22:44.421Z,10.77
2023-02-19T17:25:11.020Z,10.76
2023-02-19T17:27:37.487Z,10.77
2023-02-19T17:30:09.927Z,10.74
2023-02-19T17:32:36.490Z,10.74
2023-02-19T17:35:03.162Z,10.74
2023-02-19T17:37:29.632Z,10.73
2023-02-19T17:39:56.159Z,10.72
2023-02-19T17:42:23.550Z,10.70
2023-02-19T17:44:51.879Z,10.69
2023-02-19T17:47:18.514Z,10.69
2023-02-19T17:49:44.984Z,10.67
2023-02-19T17:52:13.580Z,10.64
2023-02-19T17:54:40.193Z,10.63
2023-02-19T17:57:06.661Z,10.62
2023-02-19T17:59:33.128Z,10.58
2023-02-19T18:01:59.665Z,10.54
2023-02-19T18:04:26.093Z,10.52
2023-02-19T18:06:53.959Z,10.50
2023-02-19T18:09:22.386Z,10.48
2023-02-19T18:11:49.314Z,10.46
2023-02-19T18:14:15.862Z,10.45
2023-02-19T18:16:49.985Z,10.41
2023-02-19T18:19:17.317Z,10.42
2023-02-19T18:21:44.085Z,10.42
2023-02-19T18:24:10.679Z,10.42
2023-02-19T18:26:37.205Z,10.40
2023-02-19T18:29:05.505Z,10.38
2023-02-19T18:31:37.308Z,10.36
2023-02-19T18:34:04.930Z,10.35
2023-02-19T18:36:33.543Z,10.33
2023-02-19T18:39:00.054Z,10.32
2023-02-19T18:41:26.660Z,10.32
2023-02-19T18:43:53.216Z,10.29
2023-02-19T18:46:21.272Z,10.28
2023-02-19T18:48:47.926Z,10.27
2023-02-19T18:51:14.582Z,10.25
2023-02-19T18:53:42.860Z,10.23
2023-02-19T18:56:09.379Z,10.22
2023-02-19T18:58:36.058Z,10.21
2023-02-19T19:01:02.723Z,10.19
2023-02-19T19:03:30.840Z,10.16
2023-02-19T19:05:57.616Z,10.14
2023-02-19T19:08:24.512Z,10.14
2023-02-19T19:10:51.031Z,10.12
2023-02-19T19:13:17.583Z,10.10
2023-02-19T19:15:49.867Z,10.06
2023-02-19T19:18:16.460Z,10.07
2023-02-19T19:20:42.965Z,10.05
2023-02-19T19:23:09.409Z,10.03
2023-02-19T19:25:36.048Z,10.00
2023-02-19T19:28:02.558Z,9.97
2023-02-19T19:30:29.180Z,9.94
2023-02-19T19:32:55.850Z,9.93
2023-02-19T19:35:22.726Z,9.89
2023-02-19T19:37:49.566Z,9.87
2023-02-19T19:40:17.856Z,9.86
2023-02-19T19:42:44.744Z,9.85
2023-02-19T19:45:12.435Z,9.83
2023-02-19T19:47:39.604Z,9.84
2023-02-19T19:50:06.324Z,9.83
2023-02-19T19:52:32.804Z,9.83
2023-02-19T19:54:59.302Z,9.82
2023-02-19T19:57:25.819Z,9.81
2023-02-19T19:59:52.505Z,9.80
2023-02-19T20:02:19.761Z,9.80
2023-02-19T20:04:46.301Z,9.80
2023-02-19T20:07:12.745Z,9.80
2023-02-19T20:09:39.339Z,9.78
2023-02-19T20:12:06.572Z,9.78
2023-02-19T20:14:33.852Z,9.78
2023-02-19T20:17:01.470Z,9.78
2023-02-19T20:19:27.997Z,9.77
2023-02-19T20:21:54.712Z,9.75
2023-02-19T20:24:24.904Z,9.72
2023-02-19T20:26:58.521Z,9.71
2023-02-19T20:29:30.161Z,9.69
2023-02-19T20:31:59.792Z,9.70
2023-02-19T20:34:26.965Z,9.68
2023-02-19T20:36:53.865Z,9.67
2023-02-19T20:39:22.211Z,9.67
2023-02-19T20:41:51.539Z,9.65
2023-02-19T20:44:19.311Z,9.65
2023-02-19T20:46:49.300Z,9.62
2023-02-19T20:49:17.811Z,9.60
2023-02-19T20:51:50.083Z,9.56
2023-02-19T20:54:17.371Z,9.53
2023-02-19T20:56:48.420Z,9.48
2023-02-19T20:59:16.253Z,9.48
2023-02-19T21:01:43.303Z,9.46
2023-02-19T21:04:10.082Z,9.44
2023-02-19T21:06:36.893Z,9.45
2023-02-19T21:09:04.853Z,9.45
2023-02-19T21:11:31.849Z,9.43
2023-02-19T21:13:59.347Z,9.39
2023-02-19T21:16:27.112Z,9.37
2023-02-19T21:18:54.142Z,9.34
2023-02-19T21:21:25.275Z,9.31
2023-02-19T21:23:57.112Z,9.27
2023-02-19T21:26:24.233Z,9.26
2023-02-19T21:28:51.762Z,9.22
2023-02-19T21:31:18.807Z,9.19
2023-02-19T21:33:45.433Z,9.15
2023-02-19T21:36:12.507Z,9.09
2023-02-19T21:38:39.200Z,9.05
2023-02-19T21:41:05.851Z,9.02
2023-02-19T21:43:32.362Z,8.99
2023-02-19T21:45:59.009Z,8.97
2023-02-19T21:48:25.445Z,8.94
2023-02-19T21:50:52.018Z,8.92
2023-02-19T21:53:19.156Z,8.90
2023-02-19T21:55:57.825Z,8.86
2023-02-19T21:58:25.351Z,8.83
2023-02-19T22:00:53.774Z,8.80
2023-02-19T22:03:20.475Z,8.74
2023-02-19T22:05:47.081Z,8.71
2023-02-19T22:08:15.543Z,8.67
2023-02-19T22:10:42.595Z,8.65
2023-02-19T22:13:09.897Z,8.62
2023-02-19T22:15:36.705Z,8.62
2023-02-19T22:18:03.523Z,8.58
2023-02-19T22:20:30.089Z,8.57
2023-02-19T22:22:56.548Z,8.56
2023-02-19T22:25:23.140Z,8.55
2023-02-19T22:27:49.790Z,8.51
2023-02-19T22:30:16.558Z,8.50
2023-02-19T22:32:43.123Z,8.51
2023-02-19T22:35:09.670Z,8.51
2023-02-19T22:37:36.214Z,8.52
2023-02-19T22:40:02.706Z,8.52
2023-02-19T22:42:29.426Z,8.53
2023-02-19T22:44:56.003Z,8.54
2023-02-19T22:47:22.537Z,8.54
2023-02-19T22:49:49.098Z,8.54
2023-02-19T22:52:15.726Z,8.55
2023-02-19T22:54:42.296Z,8.56
2023-02-19T22:57:08.722Z,8.55
2023-02-19T22:59:35.219Z,8.56
2023-02-19T23:02:01.769Z,8.56
2023-02-19T23:04:28.394Z,8.55
2023-02-19T23:06:54.930Z,8.55
2023-02-19T23:09:24.894Z,8.54
2023-02-19T23:11:52.198Z,8.54
2023-02-19T23:14:20.625Z,8.53
2023-02-19T23:16:47.140Z,8.52
2023-02-19T23:19:15.590Z,8.50
2023-02-19T23:21:43.927Z,8.48
2023-02-19T23:24:11.176Z,8.46
2023-02-19T23:26:45.580Z,8.41
2023-02-19T23:29:15.536Z,8.38
2023-02-19T23:31:42.270Z,8.37
2023-02-19T23:34:08.980Z,8.36
2023-02-19T23:36:42.718Z,8.33
2023-02-19T23:39:11.382Z,8.33
2023-02-19T23:41:38.346Z,8.33
2023-02-19T23:44:05.496Z,8.31
2023-02-19T23:46:33.938Z,8.31
2023-02-19T23:49:00.414Z,8.29
2023-02-19T23:51:26.940Z,8.28
2023-02-19T23:53:53.387Z,8.27
2023-02-19T23:56:28.232Z,8.21
2023-02-19T23:58:55.007Z,8.23
